sensor_id;sensor_type;location;lat;lon;timestamp;P1;durP1;ratioP1;P2;durP2;ratioP2
757;SDS011;363;48.764;9.172;2022-08-01T00:00:12;3.07;;;2.87;;
757;SDS011;363;48.764;9.172;2022-08-01T00:02:38;3.05;;;2.47;;
757;SDS011;363;48.764;9.172;2022-08-01T00:05:05;2.85;;;2.60;;
757;SDS011;363;48.764;9.172;2022-08-01T00:07:33;2.55;;;2.42;;
757;SDS011;363;48.764;9.172;2022-08-01T00:09:59;2.60;;;2.40;;
757;SDS011;363;48.764;9.172;2022-08-01T00:12:25;2.93;;;2.63;;
757;SDS011;363;48.764;9.172;2022-08-01T00:14:50;2.97;;;2.77;;
757;SDS011;363;48.764;9.172;2022-08-01T00:17:16;2.93;;;2.63;;
757;SDS011;363;48.764;9.172;2022-08-01T00:19:41;2.83;;;2.63;;
757;SDS011;363;48.764;9.172;2022-08-01T00:22:07;3.13;;;2.63;;
757;SDS011;363;48.764;9.172;2022-08-01T00:24:33;2.70;;;2.50;;
757;SDS011;363;48.764;9.172;2022-08-01T00:26:58;2.83;;;2.63;;
757;SDS011;363;48.764;9.172;2022-08-01T00:29:24;2.80;;;2.60;;
757;SDS011;363;48.764;9.172;2022-08-01T00:31:49;3.73;;;2.80;;
757;SDS011;363;48.764;9.172;2022-08-01T00:34:15;2.80;;;2.60;;
757;SDS011;363;48.764;9.172;2022-08-01T00:36:41;2.33;;;2.20;;
757;SDS011;363;48.764;9.172;2022-08-01T00:39:06;2.80;;;2.60;;
757;SDS011;363;48.764;9.172;2022-08-01T00:41:32;2.50;;;2.30;;
757;SDS011;363;48.764;9.172;2022-08-01T00:43:57;2.73;;;2.40;;
757;SDS011;363;48.764;9.172;2022-08-01T00:46:23;3.17;;;2.80;;
757;SDS011;363;48.764;9.172;2022-08-01T00:48:48;4.10;;;2.90;;
757;SDS011;363;48.764;9.172;2022-08-01T00:51:15;3.30;;;3.10;;
757;SDS011;363;48.764;9.172;2022-08-01T00:53:42;3.60;;;2.95;;
757;SDS011;363;48.764;9.172;2022-08-01T00:56:07;2.60;;;2.40;;
757;SDS011;363;48.764;9.172;2022-08-01T00:58:33;2.90;;;2.70;;
757;SDS011;363;48.764;9.172;2022-08-01T01:00:59;2.83;;;2.63;;
757;SDS011;363;48.764;9.172;2022-08-01T01:03:25;3.17;;;2.90;;
757;SDS011;363;48.764;9.172;2022-08-01T01:05:56;2.90;;;2.70;;
757;SDS011;363;48.764;9.172;2022-08-01T01:08:35;3.10;;;2.90;;
757;SDS011;363;48.764;9.172;2022-08-01T01:11:08;3.30;;;3.00;;
757;SDS011;363;48.764;9.172;2022-08-01T01:16:51;2.53;;;2.33;;
757;SDS011;363;48.764;9.172;2022-08-01T01:19:20;3.05;;;2.55;;
757;SDS011;363;48.764;9.172;2022-08-01T01:25:08;3.20;;;2.75;;
757;SDS011;363;48.764;9.172;2022-08-01T01:28:20;2.80;;;2.60;;
757;SDS011;363;48.764;9.172;2022-08-01T01:30:36;2.83;;;2.63;;
757;SDS011;363;48.764;9.172;2022-08-01T01:33:06;3.03;;;2.80;;
757;SDS011;363;48.764;9.172;2022-08-01T01:35:35;3.30;;;2.85;;
757;SDS011;363;48.764;9.172;2022-08-01T01:40:59;3.10;;;2.90;;
757;SDS011;363;48.764;9.172;2022-08-01T01:43:27;3.10;;;2.90;;
757;SDS011;363;48.764;9.172;2022-08-01T01:45:54;3.08;;;2.80;;
757;SDS011;363;48.764;9.172;2022-08-01T01:48:21;3.35;;;3.05;;
757;SDS011;363;48.764;9.172;2022-08-01T01:50:49;3.55;;;3.25;;
757;SDS011;363;48.764;9.172;2022-08-01T01:53:17;3.38;;;3.08;;
757;SDS011;363;48.764;9.172;2022-08-01T01:55:46;2.95;;;2.75;;
757;SDS011;363;48.764;9.172;2022-08-01T01:58:14;2.90;;;2.70;;
757;SDS011;363;48.764;9.172;2022-08-01T02:00:41;2.92;;;2.72;;
757;SDS011;363;48.764;9.172;2022-08-01T02:03:10;3.58;;;3.28;;
757;SDS011;363;48.764;9.172;2022-08-01T02:05:37;4.70;;;3.00;;
757;SDS011;363;48.764;9.172;2022-08-01T02:08:04;3.22;;;2.90;;
757;SDS011;363;48.764;9.172;2022-08-01T02:10:31;3.65;;;3.30;;
757;SDS011;363;48.764;9.172;2022-08-01T02:12:57;3.10;;;2.88;;
757;SDS011;363;48.764;9.172;2022-08-01T02:15:26;3.80;;;3.25;;
757;SDS011;363;48.764;9.172;2022-08-01T02:17:53;3.42;;;3.20;;
757;SDS011;363;48.764;9.172;2022-08-01T02:20:20;3.40;;;3.17;;
757;SDS011;363;48.764;9.172;2022-08-01T02:22:47;3.78;;;3.47;;
757;SDS011;363;48.764;9.172;2022-08-01T02:27:54;3.40;;;3.10;;
757;SDS011;363;48.764;9.172;2022-08-01T02:30:38;3.20;;;3.00;;
757;SDS011;363;48.764;9.172;2022-08-01T02:33:23;3.05;;;2.85;;
757;SDS011;363;48.764;9.172;2022-08-01T02:35:53;3.55;;;3.25;;
757;SDS011;363;48.764;9.172;2022-08-01T02:38:24;3.10;;;2.90;;
757;SDS011;363;48.764;9.172;2022-08-01T02:40:52;3.40;;;3.10;;
757;SDS011;363;48.764;9.172;2022-08-01T02:43:23;3.80;;;3.22;;
757;SDS011;363;48.764;9.172;2022-08-01T02:45:51;3.30;;;3.00;;
757;SDS011;363;48.764;9.172;2022-08-01T02:48:19;5.18;;;3.50;;
757;SDS011;363;48.764;9.172;2022-08-01T02:50:48;3.42;;;3.22;;
757;SDS011;363;48.764;9.172;2022-08-01T02:53:16;3.60;;;3.40;;
757;SDS011;363;48.764;9.172;2022-08-01T02:55:45;3.30;;;3.00;;
757;SDS011;363;48.764;9.172;2022-08-01T02:58:13;3.60;;;3.30;;
757;SDS011;363;48.764;9.172;2022-08-01T03:00:42;3.50;;;3.20;;
757;SDS011;363;48.764;9.172;2022-08-01T03:03:09;3.85;;;3.22;;
757;SDS011;363;48.764;9.172;2022-08-01T03:05:35;3.30;;;3.10;;
757;SDS011;363;48.764;9.172;2022-08-01T03:08:04;3.63;;;3.30;;
757;SDS011;363;48.764;9.172;2022-08-01T03:10:32;3.03;;;2.80;;
757;SDS011;363;48.764;9.172;2022-08-01T03:13:01;4.25;;;3.60;;
757;SDS011;363;48.764;9.172;2022-08-01T03:15:30;3.08;;;2.88;;
757;SDS011;363;48.764;9.172;2022-08-01T03:17:58;3.33;;;3.03;;
757;SDS011;363;48.764;9.172;2022-08-01T03:20:25;3.70;;;3.10;;
757;SDS011;363;48.764;9.172;2022-08-01T03:22:52;3.28;;;2.97;;
757;SDS011;363;48.764;9.172;2022-08-01T03:25:19;3.25;;;3.05;;
757;SDS011;363;48.764;9.172;2022-08-01T03:27:47;4.05;;;3.75;;
757;SDS011;363;48.764;9.172;2022-08-01T03:30:19;3.78;;;3.40;;
757;SDS011;363;48.764;9.172;2022-08-01T03:32:47;2.80;;;2.60;;
757;SDS011;363;48.764;9.172;2022-08-01T03:35:12;3.40;;;3.20;;
757;SDS011;363;48.764;9.172;2022-08-01T03:37:41;3.80;;;3.13;;
757;SDS011;363;48.764;9.172;2022-08-01T03:40:13;3.40;;;3.20;;
757;SDS011;363;48.764;9.172;2022-08-01T03:42:46;3.17;;;2.80;;
757;SDS011;363;48.764;9.172;2022-08-01T03:45:23;3.47;;;3.17;;
757;SDS011;363;48.764;9.172;2022-08-01T03:47:52;4.05;;;3.75;;
757;SDS011;363;48.764;9.172;2022-08-01T03:50:24;3.13;;;2.90;;
757;SDS011;363;48.764;9.172;2022-08-01T03:52:51;3.20;;;2.90;;
757;SDS011;363;48.764;9.172;2022-08-01T03:55:19;3.25;;;3.00;;
757;SDS011;363;48.764;9.172;2022-08-01T03:57:46;3.40;;;3.20;;
757;SDS011;363;48.764;9.172;2022-08-01T04:00:13;2.85;;;2.55;;
757;SDS011;363;48.764;9.172;2022-08-01T04:02:43;3.10;;;2.90;;
757;SDS011;363;48.764;9.172;2022-08-01T04:05:12;3.30;;;3.05;;
757;SDS011;363;48.764;9.172;2022-08-01T04:07:38;3.35;;;3.05;;
757;SDS011;363;48.764;9.172;2022-08-01T04:10:05;3.40;;;3.10;;
757;SDS011;363;48.764;9.172;2022-08-01T04:12:31;3.35;;;3.05;;
757;SDS011;363;48.764;9.172;2022-08-01T04:14:57;3.50;;;3.20;;
757;SDS011;363;48.764;9.172;2022-08-01T04:17:23;2.87;;;2.67;;
757;SDS011;363;48.764;9.172;2022-08-01T04:19:50;2.90;;;2.70;;
757;SDS011;363;48.764;9.172;2022-08-01T04:22:15;2.93;;;2.73;;
757;SDS011;363;48.764;9.172;2022-08-01T04:24:42;4.13;;;3.10;;
757;SDS011;363;48.764;9.172;2022-08-01T04:27:14;2.90;;;2.70;;
757;SDS011;363;48.764;9.172;2022-08-01T04:29:51;2.88;;;2.67;;
757;SDS011;363;48.764;9.172;2022-08-01T04:32:20;3.65;;;3.35;;
757;SDS011;363;48.764;9.172;2022-08-01T04:34:47;3.50;;;3.20;;
757;SDS011;363;48.764;9.172;2022-08-01T04:37:14;3.75;;;3.33;;
757;SDS011;363;48.764;9.172;2022-08-01T04:39:43;4.20;;;3.50;;
757;SDS011;363;48.764;9.172;2022-08-01T04:42:10;3.20;;;3.00;;
757;SDS011;363;48.764;9.172;2022-08-01T04:44:37;3.30;;;3.00;;
757;SDS011;363;48.764;9.172;2022-08-01T04:47:03;4.00;;;3.10;;
757;SDS011;363;48.764;9.172;2022-08-01T04:49:36;3.90;;;3.58;;
757;SDS011;363;48.764;9.172;2022-08-01T04:52:03;3.90;;;3.60;;
757;SDS011;363;48.764;9.172;2022-08-01T04:54:31;3.58;;;3.28;;
757;SDS011;363;48.764;9.172;2022-08-01T04:56:59;3.80;;;3.40;;
757;SDS011;363;48.764;9.172;2022-08-01T04:59:25;3.10;;;2.90;;
757;SDS011;363;48.764;9.172;2022-08-01T05:02:11;3.92;;;3.20;;
757;SDS011;363;48.764;9.172;2022-08-01T05:04:38;3.47;;;3.17;;
757;SDS011;363;48.764;9.172;2022-08-01T05:07:05;3.88;;;3.58;;
757;SDS011;363;48.764;9.172;2022-08-01T05:09:31;4.97;;;3.70;;
757;SDS011;363;48.764;9.172;2022-08-01T05:11:58;3.42;;;3.13;;
757;SDS011;363;48.764;9.172;2022-08-01T05:14:25;3.80;;;3.50;;
757;SDS011;363;48.764;9.172;2022-08-01T05:16:50;4.18;;;3.25;;
757;SDS011;363;48.764;9.172;2022-08-01T05:19:16;4.07;;;3.45;;
757;SDS011;363;48.764;9.172;2022-08-01T05:21:42;4.13;;;3.20;;
757;SDS011;363;48.764;9.172;2022-08-01T05:24:08;3.60;;;3.23;;
757;SDS011;363;48.764;9.172;2022-08-01T05:26:33;3.70;;;3.23;;
757;SDS011;363;48.764;9.172;2022-08-01T05:28:59;3.87;;;3.57;;
757;SDS011;363;48.764;9.172;2022-08-01T05:31:25;3.60;;;3.30;;
757;SDS011;363;48.764;9.172;2022-08-01T05:33:50;4.13;;;3.17;;
757;SDS011;363;48.764;9.172;2022-08-01T05:36:16;3.17;;;2.87;;
757;SDS011;363;48.764;9.172;2022-08-01T05:38:42;3.50;;;3.30;;
757;SDS011;363;48.764;9.172;2022-08-01T05:41:07;3.40;;;2.70;;
757;SDS011;363;48.764;9.172;2022-08-01T05:43:33;3.67;;;3.00;;
757;SDS011;363;48.764;9.172;2022-08-01T05:45:58;2.67;;;2.47;;
757;SDS011;363;48.764;9.172;2022-08-01T05:48:24;3.30;;;3.00;;
757;SDS011;363;48.764;9.172;2022-08-01T05:50:50;3.67;;;3.37;;
757;SDS011;363;48.764;9.172;2022-08-01T05:53:16;3.83;;;2.70;;
757;SDS011;363;48.764;9.172;2022-08-01T05:55:41;2.83;;;2.63;;
757;SDS011;363;48.764;9.172;2022-08-01T05:58:07;2.50;;;2.30;;
757;SDS011;363;48.764;9.172;2022-08-01T06:00:32;2.60;;;2.40;;
757;SDS011;363;48.764;9.172;2022-08-01T06:02:58;3.00;;;2.80;;
757;SDS011;363;48.764;9.172;2022-08-01T06:05:23;3.13;;;2.90;;
757;SDS011;363;48.764;9.172;2022-08-01T06:07:49;3.00;;;2.70;;
757;SDS011;363;48.764;9.172;2022-08-01T06:10:15;3.10;;;2.90;;
757;SDS011;363;48.764;9.172;2022-08-01T06:12:40;3.53;;;2.03;;
757;SDS011;363;48.764;9.172;2022-08-01T06:15:06;2.97;;;2.33;;
757;SDS011;363;48.764;9.172;2022-08-01T06:17:32;2.90;;;2.33;;
757;SDS011;363;48.764;9.172;2022-08-01T06:19:58;4.33;;;2.77;;
757;SDS011;363;48.764;9.172;2022-08-01T06:22:24;2.07;;;1.97;;
757;SDS011;363;48.764;9.172;2022-08-01T06:24:50;2.17;;;2.07;;
757;SDS011;363;48.764;9.172;2022-08-01T06:27:16;1.90;;;1.80;;
757;SDS011;363;48.764;9.172;2022-08-01T06:29:41;1.80;;;1.70;;
757;SDS011;363;48.764;9.172;2022-08-01T06:32:08;2.00;;;1.90;;
757;SDS011;363;48.764;9.172;2022-08-01T06:34:34;2.60;;;2.07;;
757;SDS011;363;48.764;9.172;2022-08-01T06:37:00;2.37;;;1.97;;
757;SDS011;363;48.764;9.172;2022-08-01T06:39:26;2.10;;;1.90;;
757;SDS011;363;48.764;9.172;2022-08-01T06:41:51;2.63;;;2.30;;
757;SDS011;363;48.764;9.172;2022-08-01T06:44:17;2.20;;;2.00;;
757;SDS011;363;48.764;9.172;2022-08-01T06:46:42;2.53;;;2.33;;
757;SDS011;363;48.764;9.172;2022-08-01T06:49:08;2.07;;;1.87;;
757;SDS011;363;48.764;9.172;2022-08-01T06:51:33;2.20;;;2.00;;
757;SDS011;363;48.764;9.172;2022-08-01T06:53:59;2.37;;;2.27;;
757;SDS011;363;48.764;9.172;2022-08-01T06:56:25;2.40;;;2.20;;
757;SDS011;363;48.764;9.172;2022-08-01T06:58:50;2.77;;;2.57;;
757;SDS011;363;48.764;9.172;2022-08-01T07:01:16;2.70;;;2.30;;
757;SDS011;363;48.764;9.172;2022-08-01T07:03:41;1.90;;;1.67;;
757;SDS011;363;48.764;9.172;2022-08-01T07:06:07;2.13;;;1.80;;
757;SDS011;363;48.764;9.172;2022-08-01T07:08:33;1.90;;;1.80;;
757;SDS011;363;48.764;9.172;2022-08-01T07:10:58;2.13;;;1.80;;
757;SDS011;363;48.764;9.172;2022-08-01T07:13:27;2.40;;;1.43;;
757;SDS011;363;48.764;9.172;2022-08-01T07:15:55;4.70;;;2.80;;
757;SDS011;363;48.764;9.172;2022-08-01T07:18:21;2.60;;;2.40;;
757;SDS011;363;48.764;9.172;2022-08-01T07:20:48;1.53;;;1.40;;
757;SDS011;363;48.764;9.172;2022-08-01T07:23:14;2.17;;;1.90;;
757;SDS011;363;48.764;9.172;2022-08-01T07:25:40;2.00;;;1.80;;
757;SDS011;363;48.764;9.172;2022-08-01T07:28:06;2.07;;;1.97;;
757;SDS011;363;48.764;9.172;2022-08-01T07:30:32;2.27;;;2.07;;
757;SDS011;363;48.764;9.172;2022-08-01T07:32:57;2.07;;;1.77;;
757;SDS011;363;48.764;9.172;2022-08-01T07:35:23;3.70;;;1.70;;
757;SDS011;363;48.764;9.172;2022-08-01T07:37:49;2.03;;;1.87;;
757;SDS011;363;48.764;9.172;2022-08-01T07:40:14;2.20;;;2.00;;
757;SDS011;363;48.764;9.172;2022-08-01T07:42:42;2.57;;;1.83;;
757;SDS011;363;48.764;9.172;2022-08-01T07:45:08;3.80;;;2.20;;
757;SDS011;363;48.764;9.172;2022-08-01T07:47:35;2.20;;;2.10;;
757;SDS011;363;48.764;9.172;2022-08-01T07:50:01;2.00;;;1.90;;
757;SDS011;363;48.764;9.172;2022-08-01T07:52:28;3.40;;;2.90;;
757;SDS011;363;48.764;9.172;2022-08-01T07:54:55;2.87;;;2.20;;
757;SDS011;363;48.764;9.172;2022-08-01T07:57:21;2.23;;;2.10;;
757;SDS011;363;48.764;9.172;2022-08-01T07:59:47;2.20;;;2.10;;
757;SDS011;363;48.764;9.172;2022-08-01T08:02:12;3.27;;;2.57;;
757;SDS011;363;48.764;9.172;2022-08-01T08:04:38;2.20;;;2.10;;
757;SDS011;363;48.764;9.172;2022-08-01T08:07:04;2.20;;;2.00;;
757;SDS011;363;48.764;9.172;2022-08-01T08:09:29;3.50;;;3.20;;
757;SDS011;363;48.764;9.172;2022-08-01T08:11:55;2.73;;;2.40;;
757;SDS011;363;48.764;9.172;2022-08-01T08:14:20;3.10;;;2.90;;
757;SDS011;363;48.764;9.172;2022-08-01T08:16:47;2.53;;;2.30;;
757;SDS011;363;48.764;9.172;2022-08-01T08:19:13;2.60;;;2.40;;
757;SDS011;363;48.764;9.172;2022-08-01T08:21:39;4.13;;;2.60;;
757;SDS011;363;48.764;9.172;2022-08-01T08:24:05;3.00;;;2.73;;
757;SDS011;363;48.764;9.172;2022-08-01T08:26:50;2.37;;;2.17;;
757;SDS011;363;48.764;9.172;2022-08-01T08:29:18;2.63;;;2.43;;
757;SDS011;363;48.764;9.172;2022-08-01T08:31:44;3.63;;;2.40;;
757;SDS011;363;48.764;9.172;2022-08-01T08:34:11;2.63;;;2.20;;
757;SDS011;363;48.764;9.172;2022-08-01T08:36:37;2.63;;;2.43;;
757;SDS011;363;48.764;9.172;2022-08-01T08:39:02;1.97;;;1.87;;
757;SDS011;363;48.764;9.172;2022-08-01T08:41:32;2.77;;;2.57;;
757;SDS011;363;48.764;9.172;2022-08-01T08:43:59;3.40;;;3.13;;
757;SDS011;363;48.764;9.172;2022-08-01T08:46:26;4.40;;;4.00;;
757;SDS011;363;48.764;9.172;2022-08-01T08:48:52;3.97;;;3.57;;
757;SDS011;363;48.764;9.172;2022-08-01T08:51:19;3.07;;;2.87;;
757;SDS011;363;48.764;9.172;2022-08-01T08:53:47;3.20;;;2.83;;
757;SDS011;363;48.764;9.172;2022-08-01T08:56:14;3.43;;;3.07;;
757;SDS011;363;48.764;9.172;2022-08-01T08:58:43;4.33;;;3.00;;
757;SDS011;363;48.764;9.172;2022-08-01T09:01:10;2.33;;;2.23;;
757;SDS011;363;48.764;9.172;2022-08-01T09:03:37;4.00;;;2.70;;
757;SDS011;363;48.764;9.172;2022-08-01T09:06:03;2.80;;;2.30;;
757;SDS011;363;48.764;9.172;2022-08-01T09:08:29;2.93;;;2.73;;
757;SDS011;363;48.764;9.172;2022-08-01T09:10:55;3.50;;;3.00;;
757;SDS011;363;48.764;9.172;2022-08-01T09:13:20;5.60;;;5.20;;
757;SDS011;363;48.764;9.172;2022-08-01T09:15:47;5.60;;;4.07;;
757;SDS011;363;48.764;9.172;2022-08-01T09:23:32;4.27;;;3.97;;
757;SDS011;363;48.764;9.172;2022-08-01T09:26:03;4.20;;;3.90;;
757;SDS011;363;48.764;9.172;2022-08-01T09:28:29;4.90;;;4.50;;
757;SDS011;363;48.764;9.172;2022-08-01T09:30:56;4.93;;;4.53;;
757;SDS011;363;48.764;9.172;2022-08-01T09:33:22;5.93;;;5.33;;
757;SDS011;363;48.764;9.172;2022-08-01T09:35:55;6.70;;;6.17;;
757;SDS011;363;48.764;9.172;2022-08-01T09:38:23;6.23;;;5.57;;
757;SDS011;363;48.764;9.172;2022-08-01T09:40:52;7.07;;;6.47;;
757;SDS011;363;48.764;9.172;2022-08-01T09:43:23;7.30;;;6.60;;
757;SDS011;363;48.764;9.172;2022-08-01T09:45:50;7.40;;;6.80;;
757;SDS011;363;48.764;9.172;2022-08-01T09:48:16;8.40;;;7.80;;
757;SDS011;363;48.764;9.172;2022-08-01T09:50:45;7.53;;;6.83;;
757;SDS011;363;48.764;9.172;2022-08-01T09:53:13;5.47;;;4.97;;
757;SDS011;363;48.764;9.172;2022-08-01T09:55:40;6.10;;;5.70;;
757;SDS011;363;48.764;9.172;2022-08-01T09:58:06;6.20;;;5.80;;
757;SDS011;363;48.764;9.172;2022-08-01T10:00:33;6.47;;;5.80;;
757;SDS011;363;48.764;9.172;2022-08-01T10:02:59;6.40;;;5.80;;
757;SDS011;363;48.764;9.172;2022-08-01T10:05:43;6.67;;;6.17;;
757;SDS011;363;48.764;9.172;2022-08-01T10:08:09;5.70;;;5.23;;
757;SDS011;363;48.764;9.172;2022-08-01T10:10:35;6.03;;;5.20;;
757;SDS011;363;48.764;9.172;2022-08-01T10:13:01;6.20;;;5.70;;
757;SDS011;363;48.764;9.172;2022-08-01T10:15:28;6.50;;;6.00;;
757;SDS011;363;48.764;9.172;2022-08-01T10:17:56;6.30;;;5.80;;
757;SDS011;363;48.764;9.172;2022-08-01T10:20:30;6.17;;;5.67;;
757;SDS011;363;48.764;9.172;2022-08-01T10:23:03;5.33;;;4.83;;
757;SDS011;363;48.764;9.172;2022-08-01T10:25:33;6.30;;;5.70;;
757;SDS011;363;48.764;9.172;2022-08-01T10:28:01;6.47;;;5.97;;
757;SDS011;363;48.764;9.172;2022-08-01T10:30:41;4.93;;;4.60;;
757;SDS011;363;48.764;9.172;2022-08-01T10:33:08;4.67;;;4.27;;
757;SDS011;363;48.764;9.172;2022-08-01T10:35:35;4.97;;;4.67;;
757;SDS011;363;48.764;9.172;2022-08-01T10:38:01;4.63;;;4.33;;
757;SDS011;363;48.764;9.172;2022-08-01T10:40:28;4.53;;;4.13;;
757;SDS011;363;48.764;9.172;2022-08-01T10:42:54;5.07;;;4.67;;
757;SDS011;363;48.764;9.172;2022-08-01T10:45:21;8.33;;;4.30;;
757;SDS011;363;48.764;9.172;2022-08-01T10:47:50;3.30;;;3.00;;
757;SDS011;363;48.764;9.172;2022-08-01T10:50:39;5.10;;;4.30;;
757;SDS011;363;48.764;9.172;2022-08-01T10:53:18;4.30;;;4.00;;
757;SDS011;363;48.764;9.172;2022-08-01T10:55:47;4.20;;;3.90;;
757;SDS011;363;48.764;9.172;2022-08-01T10:58:29;4.10;;;3.80;;
757;SDS011;363;48.764;9.172;2022-08-01T11:03:40;4.73;;;4.33;;
757;SDS011;363;48.764;9.172;2022-08-01T11:06:07;6.27;;;4.57;;
757;SDS011;363;48.764;9.172;2022-08-01T11:08:50;7.63;;;4.90;;
757;SDS011;363;48.764;9.172;2022-08-01T11:11:18;5.10;;;4.70;;
757;SDS011;363;48.764;9.172;2022-08-01T11:14:04;4.57;;;4.27;;
757;SDS011;363;48.764;9.172;2022-08-01T11:16:35;5.13;;;4.73;;
757;SDS011;363;48.764;9.172;2022-08-01T11:19:05;5.90;;;4.43;;
757;SDS011;363;48.764;9.172;2022-08-01T11:22:06;4.90;;;4.50;;
757;SDS011;363;48.764;9.172;2022-08-01T11:30:17;4.70;;;4.30;;
757;SDS011;363;48.764;9.172;2022-08-01T11:32:32;4.70;;;4.40;;
757;SDS011;363;48.764;9.172;2022-08-01T11:34:58;4.23;;;3.93;;
757;SDS011;363;48.764;9.172;2022-08-01T11:37:24;4.33;;;4.00;;
757;SDS011;363;48.764;9.172;2022-08-01T11:42:46;4.20;;;3.87;;
757;SDS011;363;48.764;9.172;2022-08-01T11:45:13;4.03;;;3.70;;
757;SDS011;363;48.764;9.172;2022-08-01T11:47:48;3.50;;;3.27;;
757;SDS011;363;48.764;9.172;2022-08-01T11:50:34;3.50;;;3.30;;
757;SDS011;363;48.764;9.172;2022-08-01T11:53:03;4.30;;;3.90;;
757;SDS011;363;48.764;9.172;2022-08-01T11:55:30;4.37;;;4.07;;
757;SDS011;363;48.764;9.172;2022-08-01T11:58:15;3.83;;;3.60;;
757;SDS011;363;48.764;9.172;2022-08-01T12:00:41;3.73;;;3.20;;
757;SDS011;363;48.764;9.172;2022-08-01T12:03:16;6.37;;;3.60;;
757;SDS011;363;48.764;9.172;2022-08-01T12:05:43;4.00;;;3.27;;
757;SDS011;363;48.764;9.172;2022-08-01T12:08:09;3.37;;;3.17;;
757;SDS011;363;48.764;9.172;2022-08-01T12:10:34;3.90;;;3.60;;
757;SDS011;363;48.764;9.172;2022-08-01T12:13:02;4.00;;;3.70;;
757;SDS011;363;48.764;9.172;2022-08-01T12:15:38;3.47;;;3.27;;
757;SDS011;363;48.764;9.172;2022-08-01T12:18:05;4.30;;;4.00;;
757;SDS011;363;48.764;9.172;2022-08-01T12:20:33;4.63;;;3.60;;
757;SDS011;363;48.764;9.172;2022-08-01T12:23:00;3.50;;;3.30;;
757;SDS011;363;48.764;9.172;2022-08-01T12:25:28;4.00;;;3.70;;
757;SDS011;363;48.764;9.172;2022-08-01T12:27:54;3.80;;;3.50;;
757;SDS011;363;48.764;9.172;2022-08-01T12:30:23;4.00;;;3.70;;
757;SDS011;363;48.764;9.172;2022-08-01T12:32:50;3.43;;;3.10;;
757;SDS011;363;48.764;9.172;2022-08-01T12:35:21;3.43;;;3.13;;
757;SDS011;363;48.764;9.172;2022-08-01T12:37:52;5.73;;;3.53;;
757;SDS011;363;48.764;9.172;2022-08-01T12:40:20;4.40;;;4.00;;
757;SDS011;363;48.764;9.172;2022-08-01T12:42:47;4.30;;;4.00;;
757;SDS011;363;48.764;9.172;2022-08-01T12:45:15;6.23;;;3.23;;
757;SDS011;363;48.764;9.172;2022-08-01T12:47:42;3.87;;;3.60;;
757;SDS011;363;48.764;9.172;2022-08-01T12:50:12;2.83;;;2.63;;
757;SDS011;363;48.764;9.172;2022-08-01T12:52:57;5.23;;;3.53;;
757;SDS011;363;48.764;9.172;2022-08-01T12:55:24;3.70;;;3.40;;
757;SDS011;363;48.764;9.172;2022-08-01T12:58:12;3.53;;;3.23;;
757;SDS011;363;48.764;9.172;2022-08-01T13:00:38;3.30;;;3.10;;
757;SDS011;363;48.764;9.172;2022-08-01T13:03:06;3.07;;;2.87;;
757;SDS011;363;48.764;9.172;2022-08-01T13:05:42;2.90;;;2.70;;
757;SDS011;363;48.764;9.172;2022-08-01T13:10:46;3.00;;;2.70;;
757;SDS011;363;48.764;9.172;2022-08-01T13:13:13;3.83;;;3.53;;
757;SDS011;363;48.764;9.172;2022-08-01T13:15:40;6.37;;;4.07;;
757;SDS011;363;48.764;9.172;2022-08-01T13:21:14;4.27;;;3.97;;
757;SDS011;363;48.764;9.172;2022-08-01T13:26:43;5.43;;;3.50;;
757;SDS011;363;48.764;9.172;2022-08-01T13:29:12;3.70;;;3.40;;
757;SDS011;363;48.764;9.172;2022-08-01T13:31:40;3.73;;;3.43;;
757;SDS011;363;48.764;9.172;2022-08-01T13:34:06;4.13;;;3.60;;
757;SDS011;363;48.764;9.172;2022-08-01T13:36:32;7.07;;;4.90;;
757;SDS011;363;48.764;9.172;2022-08-01T13:38:58;3.40;;;3.20;;
757;SDS011;363;48.764;9.172;2022-08-01T13:41:43;5.27;;;3.20;;
757;SDS011;363;48.764;9.172;2022-08-01T13:44:09;3.80;;;3.47;;
757;SDS011;363;48.764;9.172;2022-08-01T13:46:39;3.23;;;2.93;;
757;SDS011;363;48.764;9.172;2022-08-01T13:49:06;4.03;;;3.10;;
757;SDS011;363;48.764;9.172;2022-08-01T13:51:33;3.70;;;3.40;;
757;SDS011;363;48.764;9.172;2022-08-01T13:53:59;3.30;;;3.10;;
757;SDS011;363;48.764;9.172;2022-08-01T13:56:25;3.40;;;2.80;;
757;SDS011;363;48.764;9.172;2022-08-01T13:58:52;2.43;;;2.23;;
757;SDS011;363;48.764;9.172;2022-08-01T14:01:21;3.20;;;2.90;;
757;SDS011;363;48.764;9.172;2022-08-01T14:03:47;2.77;;;2.57;;
757;SDS011;363;48.764;9.172;2022-08-01T14:06:13;4.77;;;4.40;;
757;SDS011;363;48.764;9.172;2022-08-01T14:08:41;3.60;;;3.30;;
757;SDS011;363;48.764;9.172;2022-08-01T14:11:07;4.37;;;3.07;;
757;SDS011;363;48.764;9.172;2022-08-01T14:13:33;5.50;;;3.03;;
757;SDS011;363;48.764;9.172;2022-08-01T14:15:59;3.40;;;3.10;;
757;SDS011;363;48.764;9.172;2022-08-01T14:18:24;4.30;;;3.80;;
757;SDS011;363;48.764;9.172;2022-08-01T14:20:50;3.97;;;3.57;;
757;SDS011;363;48.764;9.172;2022-08-01T14:23:16;5.70;;;5.13;;
757;SDS011;363;48.764;9.172;2022-08-01T14:25:42;3.40;;;3.10;;
757;SDS011;363;48.764;9.172;2022-08-01T14:28:08;3.83;;;3.53;;
757;SDS011;363;48.764;9.172;2022-08-01T14:30:35;3.10;;;2.90;;
757;SDS011;363;48.764;9.172;2022-08-01T14:33:01;3.80;;;3.30;;
757;SDS011;363;48.764;9.172;2022-08-01T14:35:27;4.10;;;3.20;;
757;SDS011;363;48.764;9.172;2022-08-01T14:37:53;3.23;;;2.90;;
757;SDS011;363;48.764;9.172;2022-08-01T14:40:18;4.07;;;2.87;;
757;SDS011;363;48.764;9.172;2022-08-01T14:42:44;2.93;;;2.70;;
757;SDS011;363;48.764;9.172;2022-08-01T14:45:10;3.17;;;2.97;;
757;SDS011;363;48.764;9.172;2022-08-01T14:47:37;3.00;;;2.67;;
757;SDS011;363;48.764;9.172;2022-08-01T14:50:05;3.90;;;3.60;;
757;SDS011;363;48.764;9.172;2022-08-01T14:52:33;3.83;;;3.50;;
757;SDS011;363;48.764;9.172;2022-08-01T14:54:59;3.93;;;3.23;;
757;SDS011;363;48.764;9.172;2022-08-01T14:57:25;2.80;;;2.60;;
757;SDS011;363;48.764;9.172;2022-08-01T14:59:51;4.00;;;3.60;;
757;SDS011;363;48.764;9.172;2022-08-01T15:02:16;5.90;;;5.20;;
757;SDS011;363;48.764;9.172;2022-08-01T15:04:45;6.70;;;5.07;;
757;SDS011;363;48.764;9.172;2022-08-01T15:07:11;4.27;;;3.80;;
757;SDS011;363;48.764;9.172;2022-08-01T15:09:38;4.10;;;3.70;;
757;SDS011;363;48.764;9.172;2022-08-01T15:12:04;5.47;;;4.97;;
757;SDS011;363;48.764;9.172;2022-08-01T15:14:30;3.30;;;3.10;;
757;SDS011;363;48.764;9.172;2022-08-01T15:17:15;3.83;;;3.37;;
757;SDS011;363;48.764;9.172;2022-08-01T15:19:50;11.83;;;2.40;;
757;SDS011;363;48.764;9.172;2022-08-01T15:22:18;2.80;;;2.60;;
757;SDS011;363;48.764;9.172;2022-08-01T15:24:46;2.90;;;2.70;;
757;SDS011;363;48.764;9.172;2022-08-01T15:27:12;2.73;;;2.53;;
757;SDS011;363;48.764;9.172;2022-08-01T15:29:37;4.07;;;2.90;;
757;SDS011;363;48.764;9.172;2022-08-01T15:32:03;3.90;;;2.57;;
757;SDS011;363;48.764;9.172;2022-08-01T15:34:30;3.27;;;2.97;;
757;SDS011;363;48.764;9.172;2022-08-01T15:36:56;2.30;;;2.20;;
757;SDS011;363;48.764;9.172;2022-08-01T15:39:22;3.03;;;2.83;;
757;SDS011;363;48.764;9.172;2022-08-01T15:41:48;3.10;;;2.90;;
757;SDS011;363;48.764;9.172;2022-08-01T15:44:14;3.00;;;2.70;;
757;SDS011;363;48.764;9.172;2022-08-01T15:46:42;2.83;;;2.63;;
757;SDS011;363;48.764;9.172;2022-08-01T15:49:08;4.73;;;2.60;;
757;SDS011;363;48.764;9.172;2022-08-01T15:51:35;2.83;;;2.63;;
757;SDS011;363;48.764;9.172;2022-08-01T15:54:01;5.20;;;2.57;;
757;SDS011;363;48.764;9.172;2022-08-01T15:56:28;3.93;;;3.63;;
757;SDS011;363;48.764;9.172;2022-08-01T15:58:54;4.37;;;2.70;;
757;SDS011;363;48.764;9.172;2022-08-01T16:01:20;3.00;;;2.70;;
757;SDS011;363;48.764;9.172;2022-08-01T16:03:46;3.60;;;2.70;;
757;SDS011;363;48.764;9.172;2022-08-01T16:06:11;3.60;;;2.67;;
757;SDS011;363;48.764;9.172;2022-08-01T16:08:37;3.10;;;2.80;;
757;SDS011;363;48.764;9.172;2022-08-01T16:11:03;3.20;;;2.90;;
757;SDS011;363;48.764;9.172;2022-08-01T16:13:28;2.23;;;2.03;;
757;SDS011;363;48.764;9.172;2022-08-01T16:15:54;5.40;;;2.90;;
757;SDS011;363;48.764;9.172;2022-08-01T16:18:19;2.73;;;2.40;;
757;SDS011;363;48.764;9.172;2022-08-01T16:20:45;2.30;;;2.20;;
757;SDS011;363;48.764;9.172;2022-08-01T16:23:10;4.67;;;2.00;;
757;SDS011;363;48.764;9.172;2022-08-01T16:25:36;3.00;;;2.43;;